Rick Husband Amarillo International Airport
KAMA : now visible

Airfield :











YOU CAN JOIN US ON...

 
LOGIN :

Register | Disclaimer

   EN    FR    IT 

 









Legend :    VFR   Marginal VFR   IFR   Intensive IFR   Very Intensive IFR
Visi :
Ceiling :
>= 8 km
>= 3000ft
5 to 8 km
1000 to 3000 ft
1500m to 5 km
500 to 1000 ft
800 to 1500m
200 to 500 ft
< 800m
< 200 ft
Symbols :   Thunderstorms  Fog  Heavy snow  Heavy precipitations  Wind > 20 kt






- Airport Elevation : 3607 ft
- IATA code : AMA


KAMA - Rick Husband Amarillo International

CURRENT METAR :
  • 272053Z 21010KT 10SM CLR 19/M01 A2975 RMK AO2 SLP054 T01891011 56034

EXPIRED METARs :
  • 271953Z 22011G16KT 10SM CLR 18/M02 A2978 RMK AO2 SLP065 T01781022
  • 271853Z 22011KT 10SM CLR 17/M03 A2982 RMK AO2 SLP078 T01671028

TAF KAMA
Valid from the 27 at 18:00 until the 28 at 18:00 UTC


271727Z 2718/2818 18008KT P6SM SCT250
FM272300 12010KT P6SM BKN250
FM280300 03016KT 6SM -RA BKN012
FM280900 36021G31KT 4SM -RA BR OVC008
FM281100 36023G34KT 4SM -SNRA OVC008



MET'MAP, your aeronautical weather chart ! - Copyright ORBIFLY December 2007 - Disclaimer

ORBIFLY MET'MAP TEAM :

Programming & Development : Alexandra Zaïnal
Concept & original design : Baudouin d'Aumeries
Assistance for programming : Marc-Olivier Méhu
Technical & hardware support : Manuel Goepfert

Contact : metmap@orbifly.com




SOURCES & CREDITS :

   NOAA       Earth
Advisory